OIIIOIIE

Guest
Details From OIII - Teheran Mehrabad Intl
To OIIE - Imam Khomeini Intl
Flight Number -
Tags Generated
Created
Modified
Stats Distance 18 nm / 34 km
Max Altitude 0 ft / 0 m
Waypoints 2
Social Downloads 5
Likes 0
Share VATSIM

Download

Looking for another format? Having issues loading an existing format? Contact us
Advertisement - Login to hide

Notes

Generated

Route

OIII OIIE

ID Type Via Altitude Latitude Longitude Leg Dist Tot Dist Heading (true) Name
O OIII APT - 0 ft / 0 m 35.69663˚ 51.29216˚ - 0 nm - -
O OIIE APT - 0 ft / 0 m 35.42534˚ 51.12220˚ 18 nm 18 nm 207° / 207° -

Altitude Profile

Advertisement - Login to hide

OIII

Details ICAO OIII (THR)
Name Teheran Mehrabad Intl
Region Iran
Timezone Asia/Tehran (UTC+3.5)
Stats Elevation 3,962 ft / 1,208 m (AMSL)
Location 35.692631° 51.317409°
Runways 3
Magnetic Variation 4.729° E

METAR

OIII 130800Z 24004KT 6000 FEW040 10/M09 Q1022 A3020 NOSIG

Decode

TAF

TAF OIII 130530Z 1306/1412 24005MPS 8000 FEW040 BECMG 1312/1314 16003MPS 5000 HZ NSC BECMG 1408/1410 20005MPS 6000

Decode

Departure Runways

ID Width Length Bearing (true) Bearing (mag) Surface Threshold Offset Overrun Length
09 131 ft / 40 m 1,553 ft / 473 m 88.25° 83.52° Concrete 0 ft / 0 m 160 ft / 49 m
11L 148 ft / 45 m 13,077 ft / 3,986 m 109.70° 104.97° Asphalt 0 ft / 0 m 1,000 ft / 305 m
11R 197 ft / 60 m 13,227 ft / 4,032 m 109.74° 105.01° Asphalt 3,075 ft / 937 m 1,000 ft / 305 m
27 131 ft / 40 m 1,553 ft / 473 m 268.25° 263.52° Concrete 0 ft / 0 m 90 ft / 27 m
29L 197 ft / 60 m 13,227 ft / 4,032 m 289.77° 285.04° Asphalt 0 ft / 0 m 280 ft / 85 m
29R 148 ft / 45 m 13,077 ft / 3,986 m 289.72° 284.99° Asphalt 0 ft / 0 m 400 ft / 122 m

OIIE

Details ICAO OIIE (IKA)
Name IMAM KHOMEINI INTL
Region Iran
Timezone Asia/Tehran (UTC+3.5)
Stats Elevation 3,305 ft / 1,007 m (AMSL)
Location 35.418379° 51.143865°
Runways 2
Magnetic Variation 4.667° E

METAR

OIIE 130800Z 29008KT CAVOK 10/M08 Q1023 NOSIG

Decode

TAF

TAF OIIE 130530Z 1306/1412 14005MPS CAVOK TEMPO 1306/1309 30008MPS BECMG 1618/1320 30004MPS BECMG 1406/1408 16005MS

Decode

Destination Runways

ID Width Length Bearing (true) Bearing (mag) Surface Threshold Offset Overrun Length
11L 148 ft / 45 m 13,752 ft / 4,192 m 108.86° 104.19° Asphalt 0 ft / 0 m 394 ft / 120 m
11R 148 ft / 45 m 13,919 ft / 4,243 m 108.83° 104.16° Asphalt 0 ft / 0 m 0 ft / 0 m
29L 148 ft / 45 m 13,919 ft / 4,243 m 288.86° 284.19° Asphalt 1,972 ft / 601 m 0 ft / 0 m
29R 148 ft / 45 m 13,752 ft / 4,192 m 288.89° 284.22° Asphalt 0 ft / 0 m 394 ft / 120 m

Approach Navaids

Runway Type Ident Frequency Range Bearing (true) Bearing (mag) Slope Elevation
29R Localiser IIKA 110.30 MHz 18 nm / 33 km 288.86° 284.20° - 3,305 ft / 1,007 m (AMSL)
29R Glidescope IIKA 110.30 MHz 10 nm / 19 km 288.88° 284.21° 3.00° 3,257 ft / 993 m (AMSL)
29R DME IIKA 110.30 MHz 18 nm / 33 km - - - 3,275 ft / 998 m (AMSL)

Popular Alternatives